RJOC

Details ICAO RJOC (IZO)
Name IZUMO
Region Japan
Timezone Asia/Tokyo (UTC+9.0)
Plans Departing 12
Arriving 13
Stats Elevation 15 ft / 5 m (AMSL)
Location 35.413701° 132.889982°
Runways 1
Magnetic Variation 8.004° W
Sunrise 2017-12-15 22:11:58 UTC / 2017-12-16 07:11:58 Local
Sunset 2017-12-16 07:58:36 UTC / 2017-12-16 16:58:36 Local
Advertisement - Login to hide

Runways

ID Width Length Bearing (true) Bearing (mag) Surface Threshold Offset Overrun Length
07 148 ft / 45 m 6,557 ft / 1,999 m 59.33° 67.33° Asphalt 0 ft / 0 m 215 ft / 66 m
25 148 ft / 45 m 6,557 ft / 1,999 m 239.34° 247.34° Asphalt 0 ft / 0 m 215 ft / 66 m

Approach Navaids

Runway Type Ident Frequency Range Bearing (true) Bearing (mag) Slope Elevation
25 Localiser IXZ 111.70 MHz 18 nm / 33 km 239.32° 247.33° - 19 ft / 6 m (AMSL)
25 DME IXZ 111.70 MHz 18 nm / 33 km - - - 19 ft / 6 m (AMSL)

Map

Weather


0- 5 10 15 20 25 30 35+ Temperature / ° C

Clouds and Precipitation
Forecast for 2017-12-16 12:00 UTC. Updated 18 minutes ago

Ground ~20,000 ft ~40,000 ft Winds

METAR

RJOC 160700Z 27013KT 9999 -SHRA FEW025 SCT030 BKN040 06/M03 Q1017

TAF

TAF TAF RJOC 160505Z 1606/1712 27017KT 9999 FEW015 BKN025 TEMPO 1606/1610 27020G30KT BECMG 1610/1612 28022G33KT 3000 -SHSN TEMPO 1612/1618 1500 -TSSNGS FEW005 SCT015 BKN020 FEW025CB BECMG 1703/1706 9999 NSW

Frequencies

Approach 120.10 MHz MIHO APP
Warning: Do not use this data for real-world aviation or navigation. No guarantee of current accuracy is given.